Time;durP1;ratioP1;P1;durP2;ratioP2;P2;SDS_P1;SDS_P2;PMS_P1;PMS_P2;Temp;Humidity;BMP_temperature;BMP_pressure;BME280_temperature;BME280_humidity;BME280_pressure;Samples;Min_cycle;Max_cycle;Signal;HPM_P1;HPM_P2
2022/05/30 00:02:50;;;;;;;3.40;3.10;;;;;;;24.74;43.89;94368.59;6187701;28;103788;-62
2022/05/30 00:05:54;;;;;;;4.50;3.20;;;;;;;24.73;44.05;94372.41;6205766;28;104105;-63
2022/05/30 00:08:57;;;;;;;4.77;3.37;;;;;;;24.73;44.16;94372.41;6194121;28;104607;-62
2022/05/30 00:12:00;;;;;;;3.53;3.27;;;;;;;24.74;44.35;94374.75;6182440;28;104194;-62
2022/05/30 00:15:05;;;;;;;3.30;3.00;;;;;;;24.72;44.29;94376.97;6186257;28;103318;-62
2022/05/30 00:18:09;;;;;;;3.40;3.10;;;;;;;24.73;44.38;94378.53;6201692;28;104359;-62
2022/05/30 00:21:13;;;;;;;3.20;2.90;;;;;;;24.75;44.21;94380.88;6184151;28;104457;-62
2022/05/30 00:24:16;;;;;;;3.00;2.80;;;;;;;24.74;44.24;94398.03;6183809;28;104403;-62
2022/05/30 00:27:19;;;;;;;4.57;3.40;;;;;;;24.72;44.18;94397.59;6194805;28;104586;-62
2022/05/30 00:30:22;;;;;;;3.07;2.60;;;;;;;24.61;44.36;94391.91;6203423;28;103127;-62
2022/05/30 00:33:27;;;;;;;4.33;3.83;;;;;;;24.60;44.44;94395.69;6190778;28;103173;-62
2022/05/30 00:36:30;;;;;;;3.50;3.13;;;;;;;24.59;44.16;94388.00;6196068;28;104576;-62
2022/05/30 00:39:33;;;;;;;3.27;2.93;;;;;;;24.59;44.37;94390.69;6211462;28;103278;-62
2022/05/30 00:42:36;;;;;;;2.90;2.70;;;;;;;24.57;44.20;94387.56;6206064;28;102831;-62
2022/05/30 00:45:39;;;;;;;3.20;2.50;;;;;;;24.56;43.98;94386.00;6199539;28;104027;-62
2022/05/30 00:48:48;;;;;;;4.13;2.83;;;;;;;24.54;43.81;94390.94;6198771;28;104272;-62
2022/05/30 00:51:55;;;;;;;3.20;2.90;;;;;;;24.54;43.73;94401.63;6192602;28;103438;-62
2022/05/30 00:55:05;;;;;;;4.03;2.70;;;;;;;24.52;43.98;94393.91;6195726;28;104295;-62
2022/05/30 00:58:11;;;;;;;4.43;3.10;;;;;;;24.50;43.62;94396.91;6208513;28;103153;-62
2022/05/30 01:01:15;;;;;;;3.10;2.80;;;;;;;24.48;43.89;94393.81;6204129;28;103709;-62
2022/05/30 01:07:42;;;;;;;4.23;2.37;;;;;;;24.52;43.83;94393.13;6209414;28;103508;-62
2022/05/30 01:10:45;;;;;;;4.17;3.20;;;;;;;24.53;43.73;94394.69;6198681;28;104295;-62
2022/05/30 01:13:48;;;;;;;3.90;2.43;;;;;;;24.55;43.73;94401.28;6191027;28;103256;-62
2022/05/30 01:16:51;;;;;;;3.90;2.70;;;;;;;24.52;43.64;94393.13;6202721;28;103373;-62
2022/05/30 01:20:00;;;;;;;3.60;3.00;;;;;;;24.47;43.59;94396.81;6200236;28;103521;-62
2022/05/30 01:23:29;;;;;;;3.33;2.83;;;;;;;24.47;43.59;94410.19;6190322;28;103513;-62
2022/05/30 01:26:55;;;;;;;3.33;3.03;;;;;;;24.50;43.51;94412.97;6208246;28;105312;-61
2022/05/30 01:30:04;;;;;;;4.70;3.83;;;;;;;24.52;43.56;94409.19;6204946;28;104255;-62
2022/05/30 01:33:08;;;;;;;4.50;3.67;;;;;;;24.50;43.51;94412.19;6193502;28;103010;-62
2022/05/30 01:36:12;;;;;;;3.63;3.33;;;;;;;24.49;43.50;94399.94;6202020;28;104371;-62
2022/05/30 01:39:15;;;;;;;3.80;3.50;;;;;;;24.50;43.55;94412.19;6207703;28;104179;-63
2022/05/30 01:42:18;;;;;;;3.77;3.43;;;;;;;24.49;43.69;94418.66;6207238;28;106230;-62
2022/05/30 01:45:23;;;;;;;4.13;3.83;;;;;;;24.42;43.64;94411.22;6191824;28;103250;-62
2022/05/30 01:48:27;;;;;;;3.50;3.30;;;;;;;24.40;43.57;94412.66;6209425;28;104248;-62
2022/05/30 01:51:30;;;;;;;3.53;3.23;;;;;;;24.37;43.42;94408.78;6204045;28;103501;-62
2022/05/30 01:54:33;;;;;;;7.67;3.43;;;;;;;24.41;43.63;94420.34;6201777;28;103735;-62
2022/05/30 01:57:37;;;;;;;5.47;3.50;;;;;;;24.38;43.53;94418.34;6180069;28;103270;-62
2022/05/30 02:00:42;;;;;;;3.57;3.27;;;;;;;24.30;43.63;94413.88;6191790;28;103855;-61
2022/05/30 02:03:45;;;;;;;4.17;3.80;;;;;;;24.35;43.69;94421.69;6204549;28;104539;-60
2022/05/30 02:06:48;;;;;;;3.73;3.43;;;;;;;24.39;43.62;94425.25;6197882;28;103701;-63
2022/05/30 02:09:51;;;;;;;3.33;3.03;;;;;;;24.42;43.57;94427.25;6207668;28;103225;-62
2022/05/30 02:12:55;;;;;;;3.97;3.60;;;;;;;24.39;43.83;94432.50;6202422;28;103492;-62
2022/05/30 02:19:24;;;;;;;4.20;3.40;;;;;;;24.37;43.57;94435.50;6199903;28;102809;-61
2022/05/30 02:22:29;;;;;;;3.13;2.90;;;;;;;24.38;43.58;94434.41;6195205;28;103120;-61
2022/05/30 02:25:32;;;;;;;3.60;3.30;;;;;;;24.36;43.68;94443.84;6199530;28;103966;-61
2022/05/30 02:28:35;;;;;;;3.57;3.27;;;;;;;24.26;43.37;94431.72;6198733;28;102779;-61
2022/05/30 02:31:41;;;;;;;3.93;3.37;;;;;;;24.27;43.15;94446.66;6180131;28;104046;-61
2022/05/30 02:38:07;;;;;;;6.53;6.03;;;;;;;24.28;43.01;94447.44;6208027;28;104106;-61
2022/05/30 02:41:10;;;;;;;7.37;6.67;;;;;;;24.26;43.26;94445.09;6198026;28;104308;-61
2022/05/30 02:44:14;;;;;;;4.40;4.00;;;;;;;24.00;43.41;94444.59;6195210;28;104549;-62
2022/05/30 02:47:18;;;;;;;4.10;3.80;;;;;;;23.98;42.85;94449.47;6193472;28;103491;-61
2022/05/30 02:50:21;;;;;;;5.27;3.97;;;;;;;24.03;43.22;94452.75;6205912;28;103083;-61
2022/05/30 02:53:24;;;;;;;5.73;4.40;;;;;;;24.19;42.86;94450.19;6178508;28;105414;-61
2022/05/30 02:56:27;;;;;;;5.43;4.93;;;;;;;24.25;42.99;94456.91;6205967;28;104713;-61
2022/05/30 02:59:31;;;;;;;7.50;5.03;;;;;;;24.18;43.31;94457.44;6185899;28;104346;-61
2022/05/30 03:02:35;;;;;;;10.40;9.43;;;;;;;24.18;42.77;94464.66;6202216;28;103959;-62
2022/05/30 03:05:39;;;;;;;11.97;10.87;;;;;;;24.24;42.45;94478.63;6175625;28;105148;-61
2022/05/30 03:08:42;;;;;;;11.43;7.13;;;;;;;24.15;42.88;94478.72;6195322;28;103242;-61
2022/05/30 03:11:45;;;;;;;7.63;6.27;;;;;;;24.18;42.65;94484.16;6199126;28;103357;-61
2022/05/30 03:14:51;;;;;;;7.47;6.77;;;;;;;24.16;43.08;94488.28;6183441;28;104166;-60
2022/05/30 03:17:55;;;;;;;10.40;6.60;;;;;;;24.11;43.11;94502.66;6192037;28;103540;-61
2022/05/30 03:20:59;;;;;;;7.33;5.90;;;;;;;24.02;42.90;94509.97;6195519;28;103566;-62
2022/05/30 03:24:02;;;;;;;6.93;5.23;;;;;;;24.02;42.91;94517.22;6202370;28;104401;-63
2022/05/30 03:27:05;;;;;;;6.67;5.77;;;;;;;24.08;42.59;94522.03;6173266;28;105161;-61
2022/05/30 03:30:10;;;;;;;7.00;6.17;;;;;;;24.19;42.60;94519.72;6183067;28;103192;-60
2022/05/30 03:33:14;;;;;;;6.73;6.03;;;;;;;24.26;42.43;94530.66;6196643;28;102985;-61
2022/05/30 03:36:22;;;;;;;8.00;6.87;;;;;;;24.19;42.57;94538.41;6203009;28;103898;-61
2022/05/30 03:39:26;;;;;;;6.37;5.80;;;;;;;24.22;42.51;94540.47;6196578;28;104305;-61
2022/05/30 03:42:29;;;;;;;6.43;6.03;;;;;;;24.25;42.32;94549.69;6206938;28;103208;-60
2022/05/30 03:45:32;;;;;;;7.60;7.00;;;;;;;24.26;42.72;94552.03;6189889;28;105302;-61
2022/05/30 03:48:36;;;;;;;6.60;5.60;;;;;;;24.22;43.17;94561.06;6203128;28;106212;-61
2022/05/30 03:51:39;;;;;;;9.37;6.13;;;;;;;24.13;43.59;94563.81;6201745;28;103162;-61
2022/05/30 03:54:43;;;;;;;15.47;5.93;;;;;;;24.22;43.99;94567.19;6185945;28;103183;-61
2022/05/30 03:57:46;;;;;;;9.67;5.80;;;;;;;24.40;44.21;94568.56;6203743;28;103828;-61
2022/05/30 04:00:49;;;;;;;6.30;5.70;;;;;;;24.46;43.99;94566.44;6177228;28;105845;-61
2022/05/30 04:03:54;;;;;;;9.27;6.93;;;;;;;24.50;43.21;94572.69;6204070;28;103449;-62
2022/05/30 04:06:57;;;;;;;7.50;5.80;;;;;;;24.53;43.32;94576.59;6205582;28;103104;-60
2022/05/30 04:10:00;;;;;;;6.17;5.50;;;;;;;24.49;44.10;94582.59;6195266;28;104246;-61
2022/05/30 04:13:07;;;;;;;8.00;7.20;;;;;;;24.37;44.21;94587.97;6183072;28;104611;-61
2022/05/30 04:16:13;;;;;;;11.43;7.13;;;;;;;24.41;44.09;94585.41;6187027;28;103226;-60
2022/05/30 04:19:18;;;;;;;7.70;6.07;;;;;;;24.43;45.14;94589.28;6196632;28;103943;-63
2022/05/30 04:22:21;;;;;;;10.13;6.53;;;;;;;24.33;44.41;94591.59;6181605;28;104926;-61
2022/05/30 04:25:25;;;;;;;9.83;6.70;;;;;;;24.23;44.94;94600.06;6181196;28;104500;-60
2022/05/30 04:28:29;;;;;;;7.53;6.73;;;;;;;24.13;44.74;94596.69;6180619;28;104103;-61
2022/05/30 04:31:33;;;;;;;8.43;6.87;;;;;;;24.17;44.99;94602.13;6182605;28;103432;-62
2022/05/30 04:34:38;;;;;;;7.70;5.40;;;;;;;24.18;44.72;94609.81;6166699;28;103180;-61
2022/05/30 04:37:41;;;;;;;6.30;5.40;;;;;;;24.17;44.74;94602.13;6204743;28;104527;-61
2022/05/30 04:40:44;;;;;;;6.87;6.10;;;;;;;24.23;44.18;94603.50;6204621;28;103399;-60
2022/05/30 04:43:47;;;;;;;6.87;6.20;;;;;;;24.21;44.56;94600.41;6202394;28;104147;-61
2022/05/30 04:46:54;;;;;;;7.60;6.57;;;;;;;24.19;45.00;94605.25;6175281;28;104287;-61
2022/05/30 04:49:58;;;;;;;7.43;6.50;;;;;;;24.22;44.65;94609.19;6181101;28;103432;-61
2022/05/30 04:53:02;;;;;;;8.37;6.83;;;;;;;24.24;44.55;94610.41;6182253;28;103026;-61
2022/05/30 04:56:05;;;;;;;8.20;7.40;;;;;;;24.18;44.60;94617.06;6198143;28;104169;-61
2022/05/30 04:59:09;;;;;;;7.90;7.20;;;;;;;24.24;44.73;94620.34;6182883;28;103569;-61
2022/05/30 05:02:13;;;;;;;8.50;7.70;;;;;;;24.22;44.75;94619.88;6181729;28;103876;-61
2022/05/30 05:05:24;;;;;;;8.70;6.90;;;;;;;24.23;44.62;94614.22;6187522;28;104385;-61
2022/05/30 05:08:37;;;;;;;7.50;6.80;;;;;;;24.23;44.90;94624.13;6195613;28;103129;-61
2022/05/30 05:11:40;;;;;;;7.60;6.83;;;;;;;24.25;44.46;94621.91;6206475;28;104167;-61
2022/05/30 05:14:43;;;;;;;8.73;7.70;;;;;;;24.27;44.85;94633.81;6185985;28;103534;-61
2022/05/30 05:17:46;;;;;;;8.30;7.40;;;;;;;24.25;45.28;94630.69;6200623;28;104492;-61
2022/05/30 05:20:51;;;;;;;8.53;7.13;;;;;;;24.26;44.83;94634.94;6199874;28;102942;-61
2022/05/30 05:23:55;;;;;;;7.83;7.13;;;;;;;24.26;44.83;94640.28;6204795;28;103140;-61
2022/05/30 05:26:58;;;;;;;8.20;7.40;;;;;;;24.27;45.03;94635.72;6208769;28;103758;-61
2022/05/30 05:30:01;;;;;;;13.60;7.17;;;;;;;24.29;45.58;94631.59;6210240;28;103540;-60
2022/05/30 05:33:04;;;;;;;8.37;7.57;;;;;;;24.45;46.21;94627.19;6194711;28;103152;-61
2022/05/30 05:36:09;;;;;;;8.60;7.87;;;;;;;24.54;45.02;94632.47;6183218;28;104094;-61
2022/05/30 05:39:12;;;;;;;9.30;8.40;;;;;;;24.62;44.91;94634.25;6186010;28;103209;-60
2022/05/30 05:42:15;;;;;;;8.93;8.13;;;;;;;24.62;46.20;94634.25;6185444;28;104148;-61
2022/05/30 05:45:19;;;;;;;10.23;7.47;;;;;;;24.66;45.56;94637.81;6196257;28;104159;-62
2022/05/30 05:48:22;;;;;;;8.30;7.60;;;;;;;24.78;44.63;94639.78;6210296;28;103110;-60
2022/05/30 05:51:28;;;;;;;8.57;7.87;;;;;;;24.75;45.35;94643.91;6209735;28;102974;-61
2022/05/30 05:54:31;;;;;;;9.90;8.90;;;;;;;24.61;46.02;94642.59;6184263;28;103328;-63
2022/05/30 05:57:35;;;;;;;9.93;9.13;;;;;;;24.49;45.91;94652.16;6210546;28;103322;-61
2022/05/30 06:00:38;;;;;;;11.17;10.07;;;;;;;24.43;45.76;94650.81;6209720;28;103202;-61
2022/05/30 06:03:41;;;;;;;9.57;8.77;;;;;;;24.48;45.41;94657.84;6203996;28;104172;-62
2022/05/30 06:06:46;;;;;;;10.13;9.33;;;;;;;24.49;45.78;94657.50;6172577;28;103983;-62
2022/05/30 06:09:49;;;;;;;10.23;9.20;;;;;;;24.53;45.97;94651.50;6206326;28;104445;-62
2022/05/30 06:12:52;;;;;;;10.40;9.50;;;;;;;24.57;45.63;94653.19;6207114;28;103202;-61
2022/05/30 06:15:56;;;;;;;10.50;9.70;;;;;;;24.61;45.72;94659.44;6199875;28;104080;-61
2022/05/30 06:19:02;;;;;;;10.57;9.67;;;;;;;24.62;45.75;94657.53;6204369;28;102819;-62
2022/05/30 06:22:07;;;;;;;9.20;8.40;;;;;;;24.61;45.42;94666.69;6209186;28;103849;-62
2022/05/30 06:25:10;;;;;;;10.80;9.23;;;;;;;24.62;45.42;94665.56;6186664;28;104762;-62
2022/05/30 06:28:13;;;;;;;10.40;9.50;;;;;;;24.62;45.80;94671.72;6178665;28;104035;-62
2022/05/30 06:31:19;;;;;;;10.43;9.33;;;;;;;24.71;45.35;94683.16;6184906;28;104682;-60
2022/05/30 06:34:22;;;;;;;10.60;9.60;;;;;;;24.67;45.94;94676.06;6192671;28;103015;-63
2022/05/30 06:37:26;;;;;;;10.70;9.80;;;;;;;24.72;45.61;94678.56;6192070;28;102936;-61
2022/05/30 06:40:29;;;;;;;10.60;9.80;;;;;;;24.68;45.99;94678.44;6195311;28;104229;-62
2022/05/30 06:43:33;;;;;;;10.00;9.00;;;;;;;24.66;45.47;94688.66;6200206;28;103096;-61
2022/05/30 06:46:38;;;;;;;10.80;9.57;;;;;;;24.66;45.78;94690.56;6187559;28;103931;-61
2022/05/30 06:49:41;;;;;;;12.33;9.53;;;;;;;24.68;45.33;94683.78;6184252;28;103261;-61
2022/05/30 06:52:46;;;;;;;10.30;8.80;;;;;;;24.74;45.71;94689.72;6173674;28;104040;-62
2022/05/30 06:55:51;;;;;;;9.97;9.17;;;;;;;24.66;46.28;94687.88;6188180;28;103225;-61
2022/05/30 06:58:55;;;;;;;10.30;9.50;;;;;;;24.67;46.21;94689.44;6183806;28;103054;-61
2022/05/30 07:02:00;;;;;;;12.30;11.20;;;;;;;24.53;46.14;94699.66;6173450;28;103918;-64
2022/05/30 07:05:04;;;;;;;13.37;11.87;;;;;;;24.17;46.25;94693.03;6177823;28;104639;-62
2022/05/30 07:08:09;;;;;;;13.27;12.00;;;;;;;23.90;46.81;94692.44;6184047;28;102902;-61
2022/05/30 07:11:12;;;;;;;13.10;11.57;;;;;;;23.90;47.08;94705.81;6184066;28;104157;-61
2022/05/30 07:14:17;;;;;;;13.43;12.27;;;;;;;23.83;47.60;94694.84;6175291;28;103556;-62
2022/05/30 07:17:20;;;;;;;12.07;10.97;;;;;;;23.93;47.51;94696.34;6182580;28;104020;-62
2022/05/30 07:20:23;;;;;;;13.23;10.17;;;;;;;24.18;46.40;94690.03;6182618;28;103007;-61
2022/05/30 07:23:28;;;;;;;11.37;10.27;;;;;;;24.35;46.42;94691.00;6182617;28;104158;-62
2022/05/30 07:26:31;;;;;;;10.67;9.67;;;;;;;24.40;46.56;94688.94;6168200;28;103279;-63
2022/05/30 07:29:35;;;;;;;12.93;11.67;;;;;;;24.42;46.49;94699.28;6183868;28;103243;-62
2022/05/30 07:32:38;;;;;;;11.23;10.17;;;;;;;24.44;46.75;94697.84;6181515;28;103328;-63
2022/05/30 07:35:43;;;;;;;11.97;10.40;;;;;;;24.40;45.99;94701.50;6196655;28;103431;-61
2022/05/30 07:38:48;;;;;;;11.97;10.87;;;;;;;24.49;46.11;94704.88;6202688;28;104125;-61
2022/05/30 07:41:51;;;;;;;11.43;10.30;;;;;;;24.54;46.27;94698.56;6207007;28;103514;-62
2022/05/30 07:44:54;;;;;;;12.07;10.87;;;;;;;24.47;46.74;94697.19;6198284;28;104644;-62
2022/05/30 07:47:57;;;;;;;12.03;10.80;;;;;;;24.46;46.27;94700.19;6187620;28;103239;-61
2022/05/30 07:51:02;;;;;;;11.93;10.77;;;;;;;24.62;46.19;94708.38;6183632;28;103188;-61
2022/05/30 07:54:07;;;;;;;11.30;10.30;;;;;;;24.71;46.02;94699.19;6182950;28;103226;-61
2022/05/30 08:00:45;;;;;;;11.07;10.17;;;;;;;24.76;45.71;94684.81;6196758;28;104210;-62
2022/05/30 08:03:50;;;;;;;10.63;9.63;;;;;;;24.90;45.89;94701.34;6204485;28;103118;-61
2022/05/30 08:06:53;;;;;;;9.93;9.00;;;;;;;24.99;45.96;94691.31;6203832;28;103324;-61
2022/05/30 08:09:58;;;;;;;9.60;8.80;;;;;;;25.00;45.58;94698.22;6199498;28;103194;-60
2022/05/30 08:13:01;;;;;;;10.07;9.17;;;;;;;25.11;45.52;94700.50;6203762;28;103034;-61
2022/05/30 08:16:07;;;;;;;9.37;8.67;;;;;;;25.19;45.38;94711.09;6201889;28;103241;-60
2022/05/30 08:19:10;;;;;;;9.97;9.03;;;;;;;25.20;45.57;94698.47;6206522;28;103159;-61
2022/05/30 08:22:34;;;;;;;9.90;9.00;;;;;;;25.30;45.14;94695.38;6197865;28;103623;-61
2022/05/30 08:25:40;;;;;;;9.20;8.47;;;;;;;25.29;45.25;94699.16;6188086;28;104457;-60
2022/05/30 08:28:46;;;;;;;11.83;9.13;;;;;;;25.27;45.46;94696.03;6207337;28;104230;-61
2022/05/30 08:31:49;;;;;;;9.47;8.57;;;;;;;25.32;45.07;94693.13;6206717;28;103152;-61
2022/05/30 08:34:53;;;;;;;9.87;8.87;;;;;;;25.37;45.10;94692.94;6189281;28;103067;-61
2022/05/30 08:37:57;;;;;;;9.60;8.80;;;;;;;25.43;45.03;94691.59;6207394;28;103264;-60
2022/05/30 08:44:24;;;;;;;9.10;8.20;;;;;;;25.45;44.72;94702.78;6169792;28;103018;-59
2022/05/30 08:47:43;;;;;;;9.60;8.60;;;;;;;25.48;44.88;94701.31;6183935;28;102878;-61
2022/05/30 08:50:54;;;;;;;9.47;8.67;;;;;;;25.47;45.06;94699.75;6186372;28;103244;-61
2022/05/30 08:54:18;;;;;;;9.83;8.63;;;;;;;25.45;44.91;94688.59;6184588;28;103191;-61
2022/05/30 08:57:36;;;;;;;9.63;8.83;;;;;;;25.50;45.11;94688.34;6200000;28;103319;-61
2022/05/30 09:00:46;;;;;;;10.00;9.00;;;;;;;25.57;45.00;94691.28;6186937;28;104361;-60
2022/05/30 09:04:16;;;;;;;9.20;8.50;;;;;;;25.57;44.72;94699.31;6193764;28;105606;-60
2022/05/30 09:07:24;;;;;;;8.60;7.90;;;;;;;25.61;44.55;94700.97;6173752;28;103255;-61
2022/05/30 09:10:33;;;;;;;10.03;9.13;;;;;;;25.63;44.75;94697.97;6185973;28;103990;-61
2022/05/30 09:13:41;;;;;;;8.43;7.73;;;;;;;25.62;44.43;94699.84;6202046;28;103545;-60
2022/05/30 09:16:48;;;;;;;9.43;8.57;;;;;;;25.64;44.96;94694.94;6187273;28;103962;-61
2022/05/30 09:19:54;;;;;;;8.67;7.87;;;;;;;25.68;44.30;94700.41;6181911;28;103283;-61
2022/05/30 09:22:58;;;;;;;9.17;8.33;;;;;;;25.69;44.62;94696.59;6209313;28;104194;-61
2022/05/30 09:26:07;;;;;;;8.53;7.73;;;;;;;25.71;44.61;94699.75;6201830;28;104214;-61
2022/05/30 09:29:19;;;;;;;8.53;7.73;;;;;;;25.73;44.43;94707.44;6206510;28;103549;-61
2022/05/30 09:32:33;;;;;;;8.90;8.20;;;;;;;25.74;44.58;94704.44;6208799;28;103029;-61
2022/05/30 09:35:41;;;;;;;8.67;7.97;;;;;;;25.76;44.43;94714.81;6195547;28;103591;-61
2022/05/30 09:38:47;;;;;;;9.10;8.40;;;;;;;25.76;44.43;94710.22;6187806;28;103490;-61
2022/05/30 09:41:56;;;;;;;8.80;8.10;;;;;;;25.76;44.24;94712.91;6199382;28;104006;-61
2022/05/30 09:45:09;;;;;;;8.23;7.43;;;;;;;25.76;44.29;94706.78;6187532;28;103252;-60
2022/05/30 09:48:21;;;;;;;8.57;7.97;;;;;;;25.77;44.05;94701.06;6197212;28;103230;-61
2022/05/30 09:51:31;;;;;;;8.23;7.63;;;;;;;25.76;44.29;94712.91;6181086;28;103050;-60
2022/05/30 09:54:37;;;;;;;8.43;7.70;;;;;;;25.77;44.09;94711.00;6177655;28;104479;-60
2022/05/30 09:57:43;;;;;;;8.40;7.70;;;;;;;25.78;43.96;94701.84;6210464;28;102997;-61
2022/05/30 10:00:56;;;;;;;8.63;7.93;;;;;;;25.78;44.42;94709.91;6209035;28;104162;-60
2022/05/30 10:04:16;;;;;;;8.13;7.43;;;;;;;25.77;44.23;94705.66;6186168;28;103227;-60
2022/05/30 10:07:20;;;;;;;8.03;7.23;;;;;;;25.77;44.09;94711.00;6203799;28;103239;-60
2022/05/30 10:10:31;;;;;;;7.97;7.37;;;;;;;25.77;43.68;94705.66;6182811;28;103114;-61
2022/05/30 10:13:36;;;;;;;8.47;7.80;;;;;;;25.75;43.77;94706.00;6191598;28;103795;-60
2022/05/30 10:16:41;;;;;;;8.50;7.80;;;;;;;25.74;43.86;94711.69;6193908;28;104020;-61
2022/05/30 10:19:49;;;;;;;7.70;7.10;;;;;;;25.74;43.57;94706.34;6210086;28;103222;-61
2022/05/30 10:30:03;;;;;;;7.70;7.10;;;;;;;25.72;44.01;94700.53;6193615;28;104043;-61
2022/05/30 10:33:16;;;;;;;8.47;7.70;;;;;;;25.70;43.89;94703.53;6203702;28;103543;-61
2022/05/30 10:36:27;;;;;;;7.80;7.20;;;;;;;25.69;43.67;94702.75;6180749;28;103334;-61
2022/05/30 10:39:54;;;;;;;8.07;7.37;;;;;;;25.70;43.96;94708.88;6173560;28;103610;-61
2022/05/30 10:43:04;;;;;;;7.87;7.30;;;;;;;25.69;44.16;94708.09;6182249;28;103132;-61
2022/05/30 10:46:11;;;;;;;8.77;8.10;;;;;;;25.69;43.72;94700.06;6192825;28;103798;-61
2022/05/30 10:49:20;;;;;;;7.87;7.20;;;;;;;25.67;43.55;94698.84;6186938;28;103160;-61
2022/05/30 10:52:30;;;;;;;7.97;7.40;;;;;;;25.67;43.66;94694.25;6184815;28;104044;-61
2022/05/30 10:55:37;;;;;;;7.83;7.07;;;;;;;25.66;43.73;94706.09;6200959;28;103701;-61
2022/05/30 10:58:46;;;;;;;7.77;7.17;;;;;;;25.66;43.52;94708.78;6184223;28;103113;-61
2022/05/30 11:01:55;;;;;;;8.10;7.50;;;;;;;25.65;43.69;94701.84;6173044;28;103497;-61
2022/05/30 11:05:07;;;;;;;7.10;6.60;;;;;;;25.65;43.66;94696.50;6198655;28;103711;-61
2022/05/30 11:08:17;;;;;;;7.90;7.30;;;;;;;25.64;43.54;94694.16;6184587;28;103941;-61
2022/05/30 11:11:29;;;;;;;7.80;7.20;;;;;;;25.62;43.53;94694.50;6177636;28;103130;-61
2022/05/30 11:14:38;;;;;;;8.10;7.50;;;;;;;25.62;43.75;94697.19;6185210;28;104199;-61
2022/05/30 11:17:47;;;;;;;7.93;7.30;;;;;;;25.62;43.55;94691.03;6190526;28;103146;-61
2022/05/30 11:21:01;;;;;;;7.33;6.73;;;;;;;25.60;43.28;94687.91;6184295;28;103838;-61
2022/05/30 11:24:06;;;;;;;8.00;7.20;;;;;;;25.61;43.71;94692.16;6183087;28;104394;-61
2022/05/30 11:27:26;;;;;;;7.60;6.90;;;;;;;25.58;43.94;94696.28;6179821;28;104044;-62
2022/05/30 11:30:46;;;;;;;7.73;7.17;;;;;;;25.58;43.81;94696.28;6183344;28;104329;-61
2022/05/30 11:34:04;;;;;;;7.57;6.80;;;;;;;25.57;43.46;94689.38;6176565;28;104074;-60
2022/05/30 11:37:21;;;;;;;7.90;7.10;;;;;;;25.57;43.53;94697.41;6176535;28;104225;-61
2022/05/30 11:40:35;;;;;;;6.93;6.43;;;;;;;25.56;43.61;94695.84;6182500;28;103220;-61
2022/05/30 11:44:11;;;;;;;7.80;7.10;;;;;;;25.55;43.67;94702.34;6182274;28;104282;-60
2022/05/30 11:47:40;;;;;;;8.13;7.43;;;;;;;25.54;43.42;94695.41;6168267;28;103302;-61
2022/05/30 11:50:53;;;;;;;7.97;7.30;;;;;;;25.55;43.74;94696.19;6181571;28;103321;-61
2022/05/30 11:54:27;;;;;;;7.53;6.93;;;;;;;25.53;43.45;94688.47;6181329;28;103517;-61
2022/05/30 11:57:36;;;;;;;7.87;7.17;;;;;;;25.53;43.60;94688.47;6182143;28;104282;-62
2022/05/30 12:00:48;;;;;;;7.17;6.67;;;;;;;25.53;43.53;94682.31;6192892;28;103316;-61
2022/05/30 12:04:25;;;;;;;7.47;6.77;;;;;;;25.52;43.86;94688.81;6181662;28;103715;-61
2022/05/30 12:08:05;;;;;;;7.60;7.00;;;;;;;25.50;43.71;94683.00;6182020;28;104251;-60
2022/05/30 12:11:39;;;;;;;8.80;7.97;;;;;;;25.49;43.54;94684.91;6167112;28;103018;-61
2022/05/30 12:15:10;;;;;;;7.90;7.10;;;;;;;25.49;43.50;94687.56;6184577;28;104086;-61
2022/05/30 12:25:54;;;;;;;7.10;6.60;;;;;;;25.48;43.67;94693.28;6193770;28;103939;-60
2022/05/30 12:28:58;;;;;;;8.03;7.00;;;;;;;25.47;43.33;94689.03;6186810;28;103986;-61
2022/05/30 12:32:17;;;;;;;7.60;7.10;;;;;;;25.46;43.24;94688.25;6176238;28;103334;-61
2022/05/30 12:35:28;;;;;;;7.60;7.10;;;;;;;25.47;43.37;94692.50;6183167;28;103452;-61
2022/05/30 12:38:50;;;;;;;7.30;6.70;;;;;;;25.46;43.63;94688.25;6185744;28;103227;-61
2022/05/30 12:41:58;;;;;;;6.97;6.30;;;;;;;25.45;43.41;94685.91;6182544;28;102944;-61
2022/05/30 12:45:18;;;;;;;7.20;6.70;;;;;;;25.45;43.45;94675.19;6178125;28;103319;-60
2022/05/30 12:48:29;;;;;;;7.40;6.80;;;;;;;25.45;43.22;94688.59;6186745;28;103117;-61
2022/05/30 12:51:43;;;;;;;7.80;7.10;;;;;;;25.45;43.31;94689.38;6199162;28;103442;-61
2022/05/30 12:55:02;;;;;;;7.13;6.63;;;;;;;25.46;43.10;94682.13;6183558;28;104324;-64
2022/05/30 12:58:06;;;;;;;7.13;6.53;;;;;;;25.44;42.93;94684.34;6186258;28;103316;-60
2022/05/30 13:01:20;;;;;;;7.23;6.50;;;;;;;25.43;43.14;94677.44;6186884;28;105455;-61
2022/05/30 13:04:25;;;;;;;7.20;6.20;;;;;;;25.43;43.13;94672.84;6178310;28;104059;-60
2022/05/30 13:07:36;;;;;;;7.63;6.97;;;;;;;25.43;43.13;94678.22;6179314;28;103493;-61
2022/05/30 13:10:40;;;;;;;6.23;5.73;;;;;;;25.43;42.80;94688.16;6197711;28;103181;-61
2022/05/30 13:13:51;;;;;;;7.57;6.87;;;;;;;25.42;42.90;94676.66;6197740;28;104232;-61
2022/05/30 13:17:02;;;;;;;7.40;6.80;;;;;;;25.43;42.73;94677.44;6172549;28;104271;-61
2022/05/30 13:20:10;;;;;;;7.43;6.80;;;;;;;25.42;42.89;94679.34;6185901;28;104421;-60
2022/05/30 13:23:16;;;;;;;7.20;6.50;;;;;;;25.42;42.50;94676.66;6184211;28;103676;-61
2022/05/30 13:26:19;;;;;;;6.90;6.40;;;;;;;25.43;42.43;94674.75;6197839;28;104855;-61
2022/05/30 13:29:29;;;;;;;6.73;6.23;;;;;;;25.40;42.76;94673.53;6200445;28;106058;-61
2022/05/30 13:32:35;;;;;;;6.53;6.03;;;;;;;25.40;42.76;94673.53;6201816;28;103127;-60
2022/05/30 13:35:40;;;;;;;6.73;6.13;;;;;;;25.42;42.82;94675.88;6190368;28;103770;-60
2022/05/30 13:38:48;;;;;;;6.53;6.13;;;;;;;25.41;42.66;94669.72;6205747;28;104212;-61
2022/05/30 13:41:51;;;;;;;6.30;5.90;;;;;;;25.41;42.81;94672.41;6204565;28;103056;-61
2022/05/30 13:45:05;;;;;;;7.27;6.67;;;;;;;25.41;42.58;94667.06;6197137;28;104619;-61
2022/05/30 13:48:15;;;;;;;7.27;6.60;;;;;;;25.42;42.43;94667.84;6186477;28;103943;-61
2022/05/30 13:51:33;;;;;;;6.57;6.17;;;;;;;25.39;42.48;94661.25;6181285;28;103277;-61
2022/05/30 13:54:41;;;;;;;7.17;6.40;;;;;;;25.42;42.57;94665.16;6192200;28;103105;-61
2022/05/30 13:57:44;;;;;;;7.17;6.57;;;;;;;25.40;42.19;94668.19;6208628;28;103066;-61
2022/05/30 14:00:48;;;;;;;6.40;5.87;;;;;;;25.40;42.55;94665.50;6209720;28;104132;-61
2022/05/30 14:03:57;;;;;;;7.37;6.77;;;;;;;25.39;42.46;94669.28;6198161;28;104135;-61
2022/05/30 14:07:00;;;;;;;6.97;6.37;;;;;;;25.41;42.25;94668.97;6203543;28;103136;-60
2022/05/30 14:10:08;;;;;;;6.60;6.07;;;;;;;25.40;42.40;94662.81;6209775;28;104292;-61
2022/05/30 14:13:36;;;;;;;6.53;6.03;;;;;;;25.40;42.40;94654.78;6189423;28;105704;-61
2022/05/30 14:16:43;;;;;;;6.77;6.03;;;;;;;25.40;42.18;94660.13;6200934;28;103363;-61
2022/05/30 14:19:48;;;;;;;7.00;6.50;;;;;;;25.40;42.11;94660.13;6208697;28;103735;-61
2022/05/30 14:22:54;;;;;;;6.30;5.80;;;;;;;25.39;42.50;94653.22;6207816;28;103137;-61
2022/05/30 14:25:57;;;;;;;7.00;6.40;;;;;;;25.40;42.32;94660.13;6181624;28;104204;-60
2022/05/30 14:29:06;;;;;;;6.43;5.93;;;;;;;25.38;42.26;94659.69;6183560;28;103471;-61
2022/05/30 14:32:23;;;;;;;6.90;6.40;;;;;;;25.42;42.64;94657.13;6184282;28;103466;-61
2022/05/30 14:35:28;;;;;;;6.73;6.00;;;;;;;25.46;41.82;94658.78;6197393;28;104062;-61
2022/05/30 14:38:45;;;;;;;6.83;6.13;;;;;;;25.41;41.74;94659.03;6203016;28;103297;-62
2022/05/30 14:41:54;;;;;;;9.23;6.40;;;;;;;25.45;41.65;94657.22;6204520;28;103359;-61
2022/05/30 14:45:06;;;;;;;7.63;6.93;;;;;;;25.47;41.26;94663.03;6185031;28;103253;-61
2022/05/30 14:48:12;;;;;;;7.37;6.67;;;;;;;25.47;41.00;94659.56;6181488;28;102931;-61
2022/05/30 14:51:21;;;;;;;7.83;7.03;;;;;;;25.50;40.76;94661.56;6196814;28;104377;-61
2022/05/30 14:54:36;;;;;;;9.30;8.30;;;;;;;25.50;40.79;94661.56;6187538;28;103841;-61
2022/05/30 14:57:44;;;;;;;10.67;8.53;;;;;;;25.48;40.99;94650.41;6208031;28;103407;-61
2022/05/30 15:00:55;;;;;;;9.70;7.80;;;;;;;25.48;41.16;94653.88;6198935;28;104845;-61
2022/05/30 15:04:05;;;;;;;8.87;7.30;;;;;;;25.51;40.91;94660.44;6208065;28;104211;-62